sensor_id;sensor_type;location;lat;lon;timestamp;P1;durP1;ratioP1;P2;durP2;ratioP2
75647;SDS011;66269;51.466;7.260;2023-02-01T00:02:01;5.60;;;2.30;;
75647;SDS011;66269;51.466;7.260;2023-02-01T00:04:27;6.55;;;2.78;;
75647;SDS011;66269;51.466;7.260;2023-02-01T00:06:53;5.63;;;2.65;;
75647;SDS011;66269;51.466;7.260;2023-02-01T00:09:18;6.63;;;2.63;;
75647;SDS011;66269;51.466;7.260;2023-02-01T00:11:44;5.25;;;2.40;;
75647;SDS011;66269;51.466;7.260;2023-02-01T00:14:10;6.57;;;2.67;;
75647;SDS011;66269;51.466;7.260;2023-02-01T00:16:36;5.45;;;2.50;;
75647;SDS011;66269;51.466;7.260;2023-02-01T00:19:03;6.20;;;2.78;;
75647;SDS011;66269;51.466;7.260;2023-02-01T00:21:30;6.47;;;2.72;;
75647;SDS011;66269;51.466;7.260;2023-02-01T00:23:57;5.75;;;2.67;;
75647;SDS011;66269;51.466;7.260;2023-02-01T00:29:02;6.50;;;2.63;;
75647;SDS011;66269;51.466;7.260;2023-02-01T00:31:29;6.57;;;2.63;;
75647;SDS011;66269;51.466;7.260;2023-02-01T00:33:55;7.22;;;2.70;;
75647;SDS011;66269;51.466;7.260;2023-02-01T00:36:20;6.07;;;2.55;;
75647;SDS011;66269;51.466;7.260;2023-02-01T00:38:46;6.82;;;2.58;;
75647;SDS011;66269;51.466;7.260;2023-02-01T00:41:13;6.53;;;2.60;;
75647;SDS011;66269;51.466;7.260;2023-02-01T00:43:40;5.82;;;2.30;;
75647;SDS011;66269;51.466;7.260;2023-02-01T00:46:06;7.05;;;2.80;;
75647;SDS011;66269;51.466;7.260;2023-02-01T00:48:32;5.50;;;2.72;;
75647;SDS011;66269;51.466;7.260;2023-02-01T00:51:01;6.20;;;2.70;;
75647;SDS011;66269;51.466;7.260;2023-02-01T00:53:29;7.00;;;2.80;;
75647;SDS011;66269;51.466;7.260;2023-02-01T00:55:55;6.13;;;2.50;;
75647;SDS011;66269;51.466;7.260;2023-02-01T00:58:21;6.70;;;3.00;;
75647;SDS011;66269;51.466;7.260;2023-02-01T01:00:49;6.35;;;2.80;;
75647;SDS011;66269;51.466;7.260;2023-02-01T01:03:14;9.75;;;3.25;;
75647;SDS011;66269;51.466;7.260;2023-02-01T01:05:56;6.70;;;2.50;;
75647;SDS011;66269;51.466;7.260;2023-02-01T01:08:22;5.68;;;2.70;;
75647;SDS011;66269;51.466;7.260;2023-02-01T01:10:48;6.53;;;2.83;;
75647;SDS011;66269;51.466;7.260;2023-02-01T01:13:14;6.07;;;2.60;;
75647;SDS011;66269;51.466;7.260;2023-02-01T01:15:40;7.30;;;2.83;;
75647;SDS011;66269;51.466;7.260;2023-02-01T01:18:06;6.03;;;2.55;;
75647;SDS011;66269;51.466;7.260;2023-02-01T01:20:36;7.47;;;2.75;;
75647;SDS011;66269;51.466;7.260;2023-02-01T01:23:04;5.85;;;2.63;;
75647;SDS011;66269;51.466;7.260;2023-02-01T01:25:29;6.32;;;2.85;;
75647;SDS011;66269;51.466;7.260;2023-02-01T01:27:55;6.03;;;2.55;;
75647;SDS011;66269;51.466;7.260;2023-02-01T01:30:21;6.53;;;2.83;;
75647;SDS011;66269;51.466;7.260;2023-02-01T01:32:47;5.45;;;2.65;;
75647;SDS011;66269;51.466;7.260;2023-02-01T01:35:12;5.93;;;2.65;;
75647;SDS011;66269;51.466;7.260;2023-02-01T01:37:38;7.28;;;3.40;;
75647;SDS011;66269;51.466;7.260;2023-02-01T01:40:04;5.63;;;2.55;;
75647;SDS011;66269;51.466;7.260;2023-02-01T01:42:36;5.95;;;2.40;;
75647;SDS011;66269;51.466;7.260;2023-02-01T01:47:52;5.32;;;2.50;;
75647;SDS011;66269;51.466;7.260;2023-02-01T01:50:24;6.90;;;3.00;;
75647;SDS011;66269;51.466;7.260;2023-02-01T01:53:09;5.95;;;2.70;;
75647;SDS011;66269;51.466;7.260;2023-02-01T01:55:39;6.60;;;2.80;;
75647;SDS011;66269;51.466;7.260;2023-02-01T01:58:09;6.47;;;2.80;;
75647;SDS011;66269;51.466;7.260;2023-02-01T02:00:38;6.88;;;2.70;;
75647;SDS011;66269;51.466;7.260;2023-02-01T02:03:15;6.40;;;3.08;;
75647;SDS011;66269;51.466;7.260;2023-02-01T02:05:44;6.65;;;2.80;;
75647;SDS011;66269;51.466;7.260;2023-02-01T02:08:12;8.07;;;3.05;;
75647;SDS011;66269;51.466;7.260;2023-02-01T02:10:38;6.38;;;2.30;;
75647;SDS011;66269;51.466;7.260;2023-02-01T02:13:23;5.55;;;2.50;;
75647;SDS011;66269;51.466;7.260;2023-02-01T02:15:56;7.43;;;2.95;;
75647;SDS011;66269;51.466;7.260;2023-02-01T02:18:30;6.05;;;2.70;;
75647;SDS011;66269;51.466;7.260;2023-02-01T02:21:14;7.40;;;3.28;;
75647;SDS011;66269;51.466;7.260;2023-02-01T02:24:19;6.75;;;2.58;;
75647;SDS011;66269;51.466;7.260;2023-02-01T02:41:13;5.78;;;2.70;;
75647;SDS011;66269;51.466;7.260;2023-02-01T02:44:17;6.72;;;2.65;;
75647;SDS011;66269;51.466;7.260;2023-02-01T02:47:11;5.85;;;2.50;;
75647;SDS011;66269;51.466;7.260;2023-02-01T02:52:51;6.75;;;2.70;;
75647;SDS011;66269;51.466;7.260;2023-02-01T02:56:00;6.32;;;2.85;;
75647;SDS011;66269;51.466;7.260;2023-02-01T02:58:49;7.03;;;2.80;;
75647;SDS011;66269;51.466;7.260;2023-02-01T03:01:35;5.80;;;2.65;;
75647;SDS011;66269;51.466;7.260;2023-02-01T03:04:21;7.32;;;3.20;;
75647;SDS011;66269;51.466;7.260;2023-02-01T03:06:48;7.82;;;2.80;;
75647;SDS011;66269;51.466;7.260;2023-02-01T03:09:29;8.20;;;2.88;;
75647;SDS011;66269;51.466;7.260;2023-02-01T03:12:01;6.32;;;2.75;;
75647;SDS011;66269;51.466;7.260;2023-02-01T03:14:57;8.00;;;2.67;;
75647;SDS011;66269;51.466;7.260;2023-02-01T03:17:28;6.65;;;2.70;;
75647;SDS011;66269;51.466;7.260;2023-02-01T03:20:01;6.70;;;2.50;;
75647;SDS011;66269;51.466;7.260;2023-02-01T03:22:28;7.43;;;3.00;;
75647;SDS011;66269;51.466;7.260;2023-02-01T03:24:59;6.53;;;2.78;;
75647;SDS011;66269;51.466;7.260;2023-02-01T03:27:34;8.57;;;2.97;;
75647;SDS011;66269;51.466;7.260;2023-02-01T03:30:09;6.15;;;2.95;;
75647;SDS011;66269;51.466;7.260;2023-02-01T03:32:37;6.47;;;2.90;;
75647;SDS011;66269;51.466;7.260;2023-02-01T03:40:55;7.53;;;3.17;;
75647;SDS011;66269;51.466;7.260;2023-02-01T03:43:47;7.18;;;2.95;;
75647;SDS011;66269;51.466;7.260;2023-02-01T03:46:21;6.57;;;2.85;;
75647;SDS011;66269;51.466;7.260;2023-02-01T03:48:52;7.20;;;2.60;;
75647;SDS011;66269;51.466;7.260;2023-02-01T03:51:20;6.10;;;2.60;;
75647;SDS011;66269;51.466;7.260;2023-02-01T03:53:47;6.68;;;2.90;;
75647;SDS011;66269;51.466;7.260;2023-02-01T03:56:14;6.47;;;2.65;;
75647;SDS011;66269;51.466;7.260;2023-02-01T03:58:43;7.53;;;3.08;;
75647;SDS011;66269;51.466;7.260;2023-02-01T04:01:22;6.78;;;3.00;;
75647;SDS011;66269;51.466;7.260;2023-02-01T04:03:48;7.55;;;2.80;;
75647;SDS011;66269;51.466;7.260;2023-02-01T04:06:14;7.15;;;2.97;;
75647;SDS011;66269;51.466;7.260;2023-02-01T04:08:40;7.07;;;2.72;;
75647;SDS011;66269;51.466;7.260;2023-02-01T04:11:05;6.32;;;3.13;;
75647;SDS011;66269;51.466;7.260;2023-02-01T04:13:31;6.82;;;2.90;;
75647;SDS011;66269;51.466;7.260;2023-02-01T04:15:56;6.22;;;2.83;;
75647;SDS011;66269;51.466;7.260;2023-02-01T04:18:22;8.27;;;2.70;;
75647;SDS011;66269;51.466;7.260;2023-02-01T04:20:47;7.03;;;2.45;;
75647;SDS011;66269;51.466;7.260;2023-02-01T04:23:13;7.88;;;3.03;;
75647;SDS011;66269;51.466;7.260;2023-02-01T04:25:40;5.75;;;2.70;;
75647;SDS011;66269;51.466;7.260;2023-02-01T04:28:06;6.13;;;2.70;;
75647;SDS011;66269;51.466;7.260;2023-02-01T04:30:31;6.50;;;2.72;;
75647;SDS011;66269;51.466;7.260;2023-02-01T04:32:57;6.63;;;2.35;;
75647;SDS011;66269;51.466;7.260;2023-02-01T04:35:23;7.35;;;2.83;;
75647;SDS011;66269;51.466;7.260;2023-02-01T04:37:48;7.05;;;2.80;;
75647;SDS011;66269;51.466;7.260;2023-02-01T04:40:14;8.02;;;2.50;;
75647;SDS011;66269;51.466;7.260;2023-02-01T04:42:40;6.95;;;2.70;;
75647;SDS011;66269;51.466;7.260;2023-02-01T04:45:06;6.03;;;2.42;;
75647;SDS011;66269;51.466;7.260;2023-02-01T04:47:33;8.35;;;3.05;;
75647;SDS011;66269;51.466;7.260;2023-02-01T04:49:59;6.43;;;2.53;;
75647;SDS011;66269;51.466;7.260;2023-02-01T04:52:25;7.30;;;2.70;;
75647;SDS011;66269;51.466;7.260;2023-02-01T04:54:52;7.20;;;2.70;;
75647;SDS011;66269;51.466;7.260;2023-02-01T04:57:19;7.20;;;2.67;;
75647;SDS011;66269;51.466;7.260;2023-02-01T04:59:45;8.07;;;3.03;;
75647;SDS011;66269;51.466;7.260;2023-02-01T05:02:10;9.10;;;2.70;;
75647;SDS011;66269;51.466;7.260;2023-02-01T05:04:36;7.22;;;2.40;;
75647;SDS011;66269;51.466;7.260;2023-02-01T05:07:01;5.85;;;2.25;;
75647;SDS011;66269;51.466;7.260;2023-02-01T05:09:27;8.73;;;3.05;;
75647;SDS011;66269;51.466;7.260;2023-02-01T05:11:52;6.90;;;2.60;;
75647;SDS011;66269;51.466;7.260;2023-02-01T05:14:36;5.47;;;2.20;;
75647;SDS011;66269;51.466;7.260;2023-02-01T05:17:02;5.38;;;2.47;;
75647;SDS011;66269;51.466;7.260;2023-02-01T05:19:27;6.53;;;2.70;;
75647;SDS011;66269;51.466;7.260;2023-02-01T05:21:53;6.18;;;2.72;;
75647;SDS011;66269;51.466;7.260;2023-02-01T05:24:18;5.82;;;2.45;;
75647;SDS011;66269;51.466;7.260;2023-02-01T05:26:47;7.88;;;2.60;;
75647;SDS011;66269;51.466;7.260;2023-02-01T05:29:13;7.28;;;2.88;;
75647;SDS011;66269;51.466;7.260;2023-02-01T05:31:40;5.35;;;2.20;;
75647;SDS011;66269;51.466;7.260;2023-02-01T05:34:06;7.78;;;2.92;;
75647;SDS011;66269;51.466;7.260;2023-02-01T05:36:32;6.25;;;2.58;;
75647;SDS011;66269;51.466;7.260;2023-02-01T05:38:57;8.00;;;2.60;;
75647;SDS011;66269;51.466;7.260;2023-02-01T05:41:23;7.00;;;2.60;;
75647;SDS011;66269;51.466;7.260;2023-02-01T05:43:48;6.05;;;2.53;;
75647;SDS011;66269;51.466;7.260;2023-02-01T05:46:14;7.35;;;2.65;;
75647;SDS011;66269;51.466;7.260;2023-02-01T05:48:40;9.93;;;3.30;;
75647;SDS011;66269;51.466;7.260;2023-02-01T05:51:06;6.93;;;2.72;;
75647;SDS011;66269;51.466;7.260;2023-02-01T05:53:31;8.50;;;3.10;;
75647;SDS011;66269;51.466;7.260;2023-02-01T05:55:57;6.20;;;2.13;;
75647;SDS011;66269;51.466;7.260;2023-02-01T05:58:22;6.85;;;2.60;;
75647;SDS011;66269;51.466;7.260;2023-02-01T06:00:48;5.78;;;2.42;;
75647;SDS011;66269;51.466;7.260;2023-02-01T06:03:14;7.18;;;2.67;;
75647;SDS011;66269;51.466;7.260;2023-02-01T06:05:39;6.80;;;2.38;;
75647;SDS011;66269;51.466;7.260;2023-02-01T06:08:05;7.53;;;2.15;;
75647;SDS011;66269;51.466;7.260;2023-02-01T06:10:32;7.03;;;2.72;;
75647;SDS011;66269;51.466;7.260;2023-02-01T06:12:58;7.60;;;2.63;;
75647;SDS011;66269;51.466;7.260;2023-02-01T06:15:23;5.75;;;2.47;;
75647;SDS011;66269;51.466;7.260;2023-02-01T06:17:49;6.25;;;2.20;;
75647;SDS011;66269;51.466;7.260;2023-02-01T06:20:14;6.40;;;2.40;;
75647;SDS011;66269;51.466;7.260;2023-02-01T06:22:41;6.00;;;2.40;;
75647;SDS011;66269;51.466;7.260;2023-02-01T06:25:07;6.35;;;2.33;;
75647;SDS011;66269;51.466;7.260;2023-02-01T06:27:35;6.03;;;2.17;;
75647;SDS011;66269;51.466;7.260;2023-02-01T06:30:01;6.35;;;2.50;;
75647;SDS011;66269;51.466;7.260;2023-02-01T06:32:28;6.15;;;2.03;;
75647;SDS011;66269;51.466;7.260;2023-02-01T06:34:54;4.85;;;1.88;;
75647;SDS011;66269;51.466;7.260;2023-02-01T06:37:20;7.53;;;2.35;;
75647;SDS011;66269;51.466;7.260;2023-02-01T06:39:48;7.07;;;2.40;;
75647;SDS011;66269;51.466;7.260;2023-02-01T06:42:14;5.78;;;2.08;;
75647;SDS011;66269;51.466;7.260;2023-02-01T06:44:39;7.25;;;2.10;;
75647;SDS011;66269;51.466;7.260;2023-02-01T06:47:05;4.93;;;2.10;;
75647;SDS011;66269;51.466;7.260;2023-02-01T06:49:30;5.53;;;2.30;;
75647;SDS011;66269;51.466;7.260;2023-02-01T06:51:56;5.93;;;2.00;;
75647;SDS011;66269;51.466;7.260;2023-02-01T06:54:21;4.65;;;2.10;;
75647;SDS011;66269;51.466;7.260;2023-02-01T06:56:47;5.78;;;2.08;;
75647;SDS011;66269;51.466;7.260;2023-02-01T06:59:13;6.28;;;2.35;;
75647;SDS011;66269;51.466;7.260;2023-02-01T07:01:38;5.45;;;1.92;;
75647;SDS011;66269;51.466;7.260;2023-02-01T07:04:04;5.32;;;2.05;;
75647;SDS011;66269;51.466;7.260;2023-02-01T07:06:30;6.10;;;2.05;;
75647;SDS011;66269;51.466;7.260;2023-02-01T07:08:55;6.07;;;2.00;;
75647;SDS011;66269;51.466;7.260;2023-02-01T07:11:22;5.00;;;1.80;;
75647;SDS011;66269;51.466;7.260;2023-02-01T07:13:48;6.53;;;1.85;;
75647;SDS011;66269;51.466;7.260;2023-02-01T07:16:15;6.47;;;2.00;;
75647;SDS011;66269;51.466;7.260;2023-02-01T07:18:42;4.20;;;1.60;;
75647;SDS011;66269;51.466;7.260;2023-02-01T07:21:08;5.65;;;1.98;;
75647;SDS011;66269;51.466;7.260;2023-02-01T07:23:34;5.40;;;1.83;;
75647;SDS011;66269;51.466;7.260;2023-02-01T07:26:01;5.63;;;1.83;;
75647;SDS011;66269;51.466;7.260;2023-02-01T07:28:29;4.32;;;1.70;;
75647;SDS011;66269;51.466;7.260;2023-02-01T07:31:08;5.88;;;1.77;;
75647;SDS011;66269;51.466;7.260;2023-02-01T07:33:36;4.25;;;1.60;;
75647;SDS011;66269;51.466;7.260;2023-02-01T07:36:02;5.18;;;1.73;;
75647;SDS011;66269;51.466;7.260;2023-02-01T07:38:29;4.65;;;1.67;;
75647;SDS011;66269;51.466;7.260;2023-02-01T07:41:02;3.85;;;1.50;;
75647;SDS011;66269;51.466;7.260;2023-02-01T07:43:30;5.10;;;1.90;;
75647;SDS011;66269;51.466;7.260;2023-02-01T07:45:56;5.22;;;1.70;;
75647;SDS011;66269;51.466;7.260;2023-02-01T07:48:22;4.57;;;1.52;;
75647;SDS011;66269;51.466;7.260;2023-02-01T07:50:56;4.30;;;1.70;;
75647;SDS011;66269;51.466;7.260;2023-02-01T07:53:36;4.22;;;1.55;;
75647;SDS011;66269;51.466;7.260;2023-02-01T07:56:02;4.63;;;1.45;;
75647;SDS011;66269;51.466;7.260;2023-02-01T07:58:28;4.82;;;1.55;;
75647;SDS011;66269;51.466;7.260;2023-02-01T08:00:54;4.20;;;1.30;;
75647;SDS011;66269;51.466;7.260;2023-02-01T08:03:38;3.80;;;1.45;;
75647;SDS011;66269;51.466;7.260;2023-02-01T08:06:04;5.32;;;1.60;;
75647;SDS011;66269;51.466;7.260;2023-02-01T08:08:31;4.47;;;1.63;;
75647;SDS011;66269;51.466;7.260;2023-02-01T08:11:00;6.05;;;1.60;;
75647;SDS011;66269;51.466;7.260;2023-02-01T08:13:27;3.47;;;1.48;;
75647;SDS011;66269;51.466;7.260;2023-02-01T08:15:57;5.38;;;1.50;;
75647;SDS011;66269;51.466;7.260;2023-02-01T08:18:24;4.78;;;1.65;;
75647;SDS011;66269;51.466;7.260;2023-02-01T08:20:49;5.13;;;1.38;;
75647;SDS011;66269;51.466;7.260;2023-02-01T08:23:16;4.15;;;1.55;;
75647;SDS011;66269;51.466;7.260;2023-02-01T08:25:42;4.85;;;1.70;;
75647;SDS011;66269;51.466;7.260;2023-02-01T08:28:08;4.05;;;1.40;;
75647;SDS011;66269;51.466;7.260;2023-02-01T08:30:36;4.30;;;1.52;;
75647;SDS011;66269;51.466;7.260;2023-02-01T08:33:03;3.60;;;1.42;;
75647;SDS011;66269;51.466;7.260;2023-02-01T08:35:30;4.03;;;1.35;;
75647;SDS011;66269;51.466;7.260;2023-02-01T08:37:56;4.47;;;1.40;;
75647;SDS011;66269;51.466;7.260;2023-02-01T08:40:22;4.45;;;1.50;;
75647;SDS011;66269;51.466;7.260;2023-02-01T08:42:47;3.75;;;1.30;;
75647;SDS011;66269;51.466;7.260;2023-02-01T08:45:16;4.25;;;1.40;;
75647;SDS011;66269;51.466;7.260;2023-02-01T08:47:46;4.38;;;1.48;;
75647;SDS011;66269;51.466;7.260;2023-02-01T08:50:12;4.82;;;1.60;;
75647;SDS011;66269;51.466;7.260;2023-02-01T08:52:38;4.90;;;1.63;;
75647;SDS011;66269;51.466;7.260;2023-02-01T08:55:04;5.47;;;1.85;;
75647;SDS011;66269;51.466;7.260;2023-02-01T08:57:30;4.40;;;1.80;;
75647;SDS011;66269;51.466;7.260;2023-02-01T08:59:56;4.97;;;1.70;;
75647;SDS011;66269;51.466;7.260;2023-02-01T09:02:22;4.50;;;1.40;;
75647;SDS011;66269;51.466;7.260;2023-02-01T09:04:47;3.50;;;1.30;;
75647;SDS011;66269;51.466;7.260;2023-02-01T09:07:13;8.82;;;1.95;;
75647;SDS011;66269;51.466;7.260;2023-02-01T09:09:38;4.88;;;1.60;;
75647;SDS011;66269;51.466;7.260;2023-02-01T09:12:04;3.17;;;1.23;;
75647;SDS011;66269;51.466;7.260;2023-02-01T09:14:30;4.43;;;1.40;;
75647;SDS011;66269;51.466;7.260;2023-02-01T09:16:56;4.97;;;1.60;;
75647;SDS011;66269;51.466;7.260;2023-02-01T09:19:22;5.03;;;1.50;;
75647;SDS011;66269;51.466;7.260;2023-02-01T09:21:47;4.50;;;1.30;;
75647;SDS011;66269;51.466;7.260;2023-02-01T09:24:13;3.90;;;1.40;;
75647;SDS011;66269;51.466;7.260;2023-02-01T09:26:38;3.30;;;1.42;;
75647;SDS011;66269;51.466;7.260;2023-02-01T09:29:04;4.82;;;1.50;;
75647;SDS011;66269;51.466;7.260;2023-02-01T09:31:36;5.28;;;1.42;;
75647;SDS011;66269;51.466;7.260;2023-02-01T09:34:03;3.78;;;1.23;;
75647;SDS011;66269;51.466;7.260;2023-02-01T09:36:29;3.72;;;1.30;;
75647;SDS011;66269;51.466;7.260;2023-02-01T09:38:55;5.65;;;1.40;;
75647;SDS011;66269;51.466;7.260;2023-02-01T09:41:35;3.60;;;1.40;;
75647;SDS011;66269;51.466;7.260;2023-02-01T09:46:47;4.83;;;1.40;;
75647;SDS011;66269;51.466;7.260;2023-02-01T09:49:18;4.18;;;1.33;;
75647;SDS011;66269;51.466;7.260;2023-02-01T09:51:50;4.30;;;1.40;;
75647;SDS011;66269;51.466;7.260;2023-02-01T09:54:22;4.78;;;1.50;;
75647;SDS011;66269;51.466;7.260;2023-02-01T09:57:02;5.85;;;1.60;;
75647;SDS011;66269;51.466;7.260;2023-02-01T09:59:31;3.60;;;1.30;;
75647;SDS011;66269;51.466;7.260;2023-02-01T10:02:19;3.90;;;1.40;;
75647;SDS011;66269;51.466;7.260;2023-02-01T10:04:48;5.05;;;1.48;;
75647;SDS011;66269;51.466;7.260;2023-02-01T10:10:10;5.15;;;1.60;;
75647;SDS011;66269;51.466;7.260;2023-02-01T10:15:42;5.65;;;1.50;;
75647;SDS011;66269;51.466;7.260;2023-02-01T10:28:58;4.82;;;1.50;;
75647;SDS011;66269;51.466;7.260;2023-02-01T10:31:26;4.35;;;1.42;;
75647;SDS011;66269;51.466;7.260;2023-02-01T10:33:56;5.03;;;1.58;;
75647;SDS011;66269;51.466;7.260;2023-02-01T10:36:31;3.80;;;1.50;;
75647;SDS011;66269;51.466;7.260;2023-02-01T10:39:03;3.85;;;1.20;;
75647;SDS011;66269;51.466;7.260;2023-02-01T10:41:33;4.10;;;1.48;;
75647;SDS011;66269;51.466;7.260;2023-02-01T10:44:02;3.83;;;1.40;;
75647;SDS011;66269;51.466;7.260;2023-02-01T10:46:30;3.97;;;1.30;;
75647;SDS011;66269;51.466;7.260;2023-02-01T10:48:56;4.40;;;1.40;;
75647;SDS011;66269;51.466;7.260;2023-02-01T10:54:00;4.07;;;1.40;;
75647;SDS011;66269;51.466;7.260;2023-02-01T10:56:34;3.65;;;1.30;;
75647;SDS011;66269;51.466;7.260;2023-02-01T10:59:04;3.97;;;1.30;;
75647;SDS011;66269;51.466;7.260;2023-02-01T11:01:34;3.80;;;1.58;;
75647;SDS011;66269;51.466;7.260;2023-02-01T11:04:05;6.07;;;1.77;;
75647;SDS011;66269;51.466;7.260;2023-02-01T11:06:36;4.32;;;1.52;;
75647;SDS011;66269;51.466;7.260;2023-02-01T11:11:32;5.55;;;1.40;;
75647;SDS011;66269;51.466;7.260;2023-02-01T11:14:17;4.00;;;1.50;;
75647;SDS011;66269;51.466;7.260;2023-02-01T11:16:51;3.90;;;1.50;;
75647;SDS011;66269;51.466;7.260;2023-02-01T11:19:19;5.97;;;1.52;;
75647;SDS011;66269;51.466;7.260;2023-02-01T11:21:45;4.93;;;1.63;;
75647;SDS011;66269;51.466;7.260;2023-02-01T11:27:04;4.93;;;1.45;;
75647;SDS011;66269;51.466;7.260;2023-02-01T11:29:38;4.35;;;1.65;;
75647;SDS011;66269;51.466;7.260;2023-02-01T11:32:06;5.40;;;1.40;;
75647;SDS011;66269;51.466;7.260;2023-02-01T11:34:42;3.60;;;1.27;;
75647;SDS011;66269;51.466;7.260;2023-02-01T11:37:15;4.90;;;1.50;;
75647;SDS011;66269;51.466;7.260;2023-02-01T11:40:02;3.95;;;1.33;;
75647;SDS011;66269;51.466;7.260;2023-02-01T11:42:58;3.58;;;1.63;;
75647;SDS011;66269;51.466;7.260;2023-02-01T11:45:32;5.00;;;1.60;;
75647;SDS011;66269;51.466;7.260;2023-02-01T11:47:59;6.80;;;1.58;;
75647;SDS011;66269;51.466;7.260;2023-02-01T11:50:46;3.88;;;1.48;;
75647;SDS011;66269;51.466;7.260;2023-02-01T11:53:25;4.72;;;1.40;;
75647;SDS011;66269;51.466;7.260;2023-02-01T11:58:57;4.13;;;1.45;;
75647;SDS011;66269;51.466;7.260;2023-02-01T12:04:48;4.40;;;1.42;;
75647;SDS011;66269;51.466;7.260;2023-02-01T12:10:43;4.05;;;1.70;;
75647;SDS011;66269;51.466;7.260;2023-02-01T12:16:27;3.28;;;1.15;;
75647;SDS011;66269;51.466;7.260;2023-02-01T12:19:17;3.58;;;1.40;;
75647;SDS011;66269;51.466;7.260;2023-02-01T12:21:57;5.28;;;1.48;;
75647;SDS011;66269;51.466;7.260;2023-02-01T12:27:29;3.38;;;1.20;;
75647;SDS011;66269;51.466;7.260;2023-02-01T12:33:11;5.72;;;1.90;;
75647;SDS011;66269;51.466;7.260;2023-02-01T12:46:30;3.75;;;1.40;;
75647;SDS011;66269;51.466;7.260;2023-02-01T12:49:17;3.88;;;1.50;;
75647;SDS011;66269;51.466;7.260;2023-02-01T12:51:50;4.22;;;1.40;;
75647;SDS011;66269;51.466;7.260;2023-02-01T12:57:12;4.88;;;1.42;;
75647;SDS011;66269;51.466;7.260;2023-02-01T12:59:55;5.03;;;1.55;;
75647;SDS011;66269;51.466;7.260;2023-02-01T13:02:29;3.70;;;1.27;;
75647;SDS011;66269;51.466;7.260;2023-02-01T13:08:14;3.53;;;1.38;;
75647;SDS011;66269;51.466;7.260;2023-02-01T13:10:51;4.05;;;1.30;;
75647;SDS011;66269;51.466;7.260;2023-02-01T13:13:28;3.67;;;1.23;;
75647;SDS011;66269;51.466;7.260;2023-02-01T13:16:23;4.43;;;1.30;;
75647;SDS011;66269;51.466;7.260;2023-02-01T13:18:54;4.00;;;1.30;;
75647;SDS011;66269;51.466;7.260;2023-02-01T13:21:33;3.10;;;1.20;;
75647;SDS011;66269;51.466;7.260;2023-02-01T13:24:02;3.08;;;1.30;;
75647;SDS011;66269;51.466;7.260;2023-02-01T13:26:28;3.85;;;1.50;;
75647;SDS011;66269;51.466;7.260;2023-02-01T13:28:56;5.85;;;1.52;;
75647;SDS011;66269;51.466;7.260;2023-02-01T13:40:54;4.72;;;1.40;;
75647;SDS011;66269;51.466;7.260;2023-02-01T13:45:46;4.30;;;1.52;;
75647;SDS011;66269;51.466;7.260;2023-02-01T13:48:20;4.70;;;1.40;;
75647;SDS011;66269;51.466;7.260;2023-02-01T13:50:55;4.15;;;1.33;;
75647;SDS011;66269;51.466;7.260;2023-02-01T13:53:29;3.42;;;1.40;;
75647;SDS011;66269;51.466;7.260;2023-02-01T13:58:32;5.00;;;1.60;;
75647;SDS011;66269;51.466;7.260;2023-02-01T14:03:49;4.18;;;1.33;;
75647;SDS011;66269;51.466;7.260;2023-02-01T14:06:18;4.18;;;1.40;;
75647;SDS011;66269;51.466;7.260;2023-02-01T14:11:41;4.72;;;1.40;;
75647;SDS011;66269;51.466;7.260;2023-02-01T14:19:18;3.67;;;1.27;;
75647;SDS011;66269;51.466;7.260;2023-02-01T14:21:50;5.45;;;1.17;;
75647;SDS011;66269;51.466;7.260;2023-02-01T14:24:24;3.97;;;1.13;;
75647;SDS011;66269;51.466;7.260;2023-02-01T14:26:52;3.60;;;1.27;;
75647;SDS011;66269;51.466;7.260;2023-02-01T14:29:25;4.22;;;1.27;;
75647;SDS011;66269;51.466;7.260;2023-02-01T14:32:15;4.50;;;1.40;;
75647;SDS011;66269;51.466;7.260;2023-02-01T14:42:19;3.75;;;1.30;;
75647;SDS011;66269;51.466;7.260;2023-02-01T14:47:42;3.50;;;1.10;;
75647;SDS011;66269;51.466;7.260;2023-02-01T15:09:14;4.35;;;1.30;;
75647;SDS011;66269;51.466;7.260;2023-02-01T15:14:28;5.78;;;1.33;;
75647;SDS011;66269;51.466;7.260;2023-02-01T15:17:02;3.63;;;1.08;;
75647;SDS011;66269;51.466;7.260;2023-02-01T15:19:29;4.75;;;1.25;;
75647;SDS011;66269;51.466;7.260;2023-02-01T15:21:56;4.97;;;1.20;;
75647;SDS011;66269;51.466;7.260;2023-02-01T15:24:26;4.47;;;1.25;;
75647;SDS011;66269;51.466;7.260;2023-02-01T15:26:54;3.65;;;1.40;;
75647;SDS011;66269;51.466;7.260;2023-02-01T15:29:22;3.65;;;1.05;;
75647;SDS011;66269;51.466;7.260;2023-02-01T15:31:52;4.25;;;1.10;;
75647;SDS011;66269;51.466;7.260;2023-02-01T15:34:19;4.50;;;1.30;;
75647;SDS011;66269;51.466;7.260;2023-02-01T15:36:45;3.75;;;1.10;;
75647;SDS011;66269;51.466;7.260;2023-02-01T15:39:15;4.15;;;1.30;;
75647;SDS011;66269;51.466;7.260;2023-02-01T15:41:55;3.67;;;1.10;;
75647;SDS011;66269;51.466;7.260;2023-02-01T15:47:18;2.75;;;1.08;;
75647;SDS011;66269;51.466;7.260;2023-02-01T15:49:56;3.47;;;1.10;;
75647;SDS011;66269;51.466;7.260;2023-02-01T15:52:34;2.78;;;1.08;;
75647;SDS011;66269;51.466;7.260;2023-02-01T15:55:03;2.25;;;0.98;;
75647;SDS011;66269;51.466;7.260;2023-02-01T15:57:42;3.45;;;1.10;;
75647;SDS011;66269;51.466;7.260;2023-02-01T16:03:01;3.10;;;1.13;;
75647;SDS011;66269;51.466;7.260;2023-02-01T16:11:14;4.70;;;1.20;;
75647;SDS011;66269;51.466;7.260;2023-02-01T16:16:12;3.15;;;1.00;;
75647;SDS011;66269;51.466;7.260;2023-02-01T16:18:39;3.83;;;1.13;;
75647;SDS011;66269;51.466;7.260;2023-02-01T16:21:05;3.78;;;1.10;;
75647;SDS011;66269;51.466;7.260;2023-02-01T16:23:33;2.70;;;1.00;;
75647;SDS011;66269;51.466;7.260;2023-02-01T16:25:59;3.47;;;1.20;;
75647;SDS011;66269;51.466;7.260;2023-02-01T16:28:25;3.35;;;1.05;;
75647;SDS011;66269;51.466;7.260;2023-02-01T16:30:51;3.67;;;1.20;;
75647;SDS011;66269;51.466;7.260;2023-02-01T16:33:18;4.78;;;1.30;;
75647;SDS011;66269;51.466;7.260;2023-02-01T16:35:46;2.90;;;1.17;;
75647;SDS011;66269;51.466;7.260;2023-02-01T16:38:14;4.30;;;1.30;;
75647;SDS011;66269;51.466;7.260;2023-02-01T16:40:44;4.60;;;1.10;;
75647;SDS011;66269;51.466;7.260;2023-02-01T16:43:14;3.08;;;1.08;;
75647;SDS011;66269;51.466;7.260;2023-02-01T16:45:42;3.67;;;1.20;;
75647;SDS011;66269;51.466;7.260;2023-02-01T16:48:16;2.45;;;1.10;;
75647;SDS011;66269;51.466;7.260;2023-02-01T16:50:49;3.95;;;1.38;;
75647;SDS011;66269;51.466;7.260;2023-02-01T16:53:17;3.55;;;1.20;;
75647;SDS011;66269;51.466;7.260;2023-02-01T16:55:43;3.55;;;1.20;;
75647;SDS011;66269;51.466;7.260;2023-02-01T16:58:11;1.75;;;0.88;;
75647;SDS011;66269;51.466;7.260;2023-02-01T17:00:37;3.92;;;1.00;;
75647;SDS011;66269;51.466;7.260;2023-02-01T17:03:03;2.75;;;1.00;;
75647;SDS011;66269;51.466;7.260;2023-02-01T17:05:30;3.10;;;1.00;;
75647;SDS011;66269;51.466;7.260;2023-02-01T17:07:57;3.85;;;1.10;;
75647;SDS011;66269;51.466;7.260;2023-02-01T17:10:28;2.80;;;1.10;;
75647;SDS011;66269;51.466;7.260;2023-02-01T17:12:55;2.10;;;0.90;;
75647;SDS011;66269;51.466;7.260;2023-02-01T17:15:22;2.80;;;1.20;;
75647;SDS011;66269;51.466;7.260;2023-02-01T17:17:49;4.05;;;1.10;;
75647;SDS011;66269;51.466;7.260;2023-02-01T17:20:20;4.93;;;1.10;;
75647;SDS011;66269;51.466;7.260;2023-02-01T17:22:47;2.97;;;0.93;;
75647;SDS011;66269;51.466;7.260;2023-02-01T17:25:17;3.88;;;1.17;;
75647;SDS011;66269;51.466;7.260;2023-02-01T17:27:45;3.20;;;1.08;;
75647;SDS011;66269;51.466;7.260;2023-02-01T17:30:11;3.67;;;1.20;;
75647;SDS011;66269;51.466;7.260;2023-02-01T17:32:38;4.22;;;1.27;;
75647;SDS011;66269;51.466;7.260;2023-02-01T17:35:04;3.88;;;1.23;;
75647;SDS011;66269;51.466;7.260;2023-02-01T17:37:37;3.55;;;1.10;;
75647;SDS011;66269;51.466;7.260;2023-02-01T17:40:02;3.47;;;1.17;;
75647;SDS011;66269;51.466;7.260;2023-02-01T17:42:29;3.22;;;1.10;;
75647;SDS011;66269;51.466;7.260;2023-02-01T17:44:55;2.63;;;1.00;;
75647;SDS011;66269;51.466;7.260;2023-02-01T17:47:24;3.88;;;1.02;;